Time;durP1;ratioP1;P1;durP2;ratioP2;P2;SDS_P1;SDS_P2;PMS_P1;PMS_P2;Temp;Humidity;BMP_temperature;BMP_pressure;BME280_temperature;BME280_humidity;BME280_pressure;Samples;Min_cycle;Max_cycle;Signal;HPM_P1;HPM_P2
2021/03/18 00:00:45;;;;;;;22.83;7.18;;;9.20;99.90;;;9.28;68.00;102778.69;4938353;29;20048;-72
2021/03/18 00:03:15;;;;;;;22.48;8.40;;;9.20;99.90;;;9.28;67.83;102788.34;4938375;29;20047;-71
2021/03/18 00:05:43;;;;;;;21.67;7.93;;;9.10;99.90;;;9.31;67.63;102788.47;4937991;29;20039;-71
2021/03/18 00:08:15;;;;;;;24.92;7.20;;;9.00;99.90;;;9.12;68.09;102759.69;4937884;29;20067;-72
2021/03/18 00:10:45;;;;;;;18.35;7.55;;;9.10;99.90;;;9.33;67.67;102773.56;4938536;29;20063;-72
2021/03/18 00:13:15;;;;;;;25.20;7.38;;;9.10;99.90;;;9.35;67.74;102770.09;4938123;29;20050;-71
2021/03/18 00:15:43;;;;;;;23.13;8.18;;;9.10;99.90;;;9.25;68.01;102764.50;4920969;29;20051;-72
2021/03/18 00:18:14;;;;;;;20.48;7.65;;;9.10;99.90;;;9.09;67.75;102749.91;4937949;29;20043;-71
2021/03/18 00:20:41;;;;;;;;;;;9.10;99.90;;;9.27;68.07;102768.97;4938224;29;20042;-71
2021/03/18 00:23:11;;;;;;;21.92;7.80;;;9.10;99.90;;;9.31;68.13;102769.97;4937958;29;19926;-72
2021/03/18 00:25:45;;;;;;;21.13;8.25;;;9.10;99.90;;;9.35;67.79;102758.66;4937747;29;20478;-72
2021/03/18 00:28:12;;;;;;;24.73;8.18;;;9.10;99.90;;;9.27;68.34;102750.47;4920922;29;20048;-72
2021/03/18 00:30:42;;;;;;;22.48;8.25;;;9.00;99.90;;;9.23;68.54;102748.63;4937954;29;20047;-72
2021/03/18 00:33:10;;;;;;;21.08;8.07;;;9.00;99.90;;;9.24;68.21;102738.94;4937439;29;20541;-72
2021/03/18 00:35:38;;;;;;;24.35;8.35;;;9.00;99.90;;;9.10;68.05;102714.75;4937507;29;20103;-72
2021/03/18 00:38:11;;;;;;;29.38;9.23;;;9.00;99.90;;;9.26;67.80;102732.84;4937610;29;20062;-72
2021/03/18 00:40:44;;;;;;;24.90;9.32;;;9.10;99.90;;;9.29;68.08;102722.38;4938103;29;20047;-71
2021/03/18 00:43:15;;;;;;;22.23;8.02;;;9.20;99.90;;;9.39;67.87;102728.88;4937655;29;20044;-71
2021/03/18 00:45:45;;;;;;;24.75;8.30;;;9.20;99.90;;;9.34;68.09;102731.34;4920553;29;20486;-71
2021/03/18 00:48:15;;;;;;;20.75;8.52;;;9.10;99.90;;;9.30;68.17;102734.75;4920497;29;20057;-71
2021/03/18 00:50:47;;;;;;;21.50;8.98;;;9.10;99.90;;;9.25;68.16;102731.09;4920370;29;20051;-72
2021/03/18 00:53:21;;;;;;;25.92;9.02;;;9.10;99.90;;;9.30;68.25;102732.09;4937421;29;20127;-72
2021/03/18 00:55:51;;;;;;;20.35;8.98;;;9.10;99.90;;;9.42;68.04;102731.56;4920298;29;20044;-71
2021/03/18 00:58:21;;;;;;;27.17;9.00;;;9.20;99.90;;;9.27;67.78;102716.16;4919786;29;20047;-71
2021/03/18 01:00:51;;;;;;;21.10;8.47;;;9.20;99.90;;;9.44;67.90;102725.50;4937299;29;20039;-72
2021/03/18 01:03:20;;;;;;;26.05;9.27;;;9.20;99.90;;;9.41;68.21;102721.84;4920195;29;20044;-71
2021/03/18 01:05:50;;;;;;;22.70;8.88;;;9.20;99.90;;;9.37;68.36;102726.16;4920063;29;20138;-72
2021/03/18 01:08:23;;;;;;;23.85;8.95;;;9.10;99.90;;;9.22;67.87;102711.56;4937193;29;20059;-72
2021/03/18 01:10:53;;;;;;;26.83;9.23;;;9.20;99.90;;;9.40;68.43;102741.19;4936851;29;20564;-72
2021/03/18 01:13:22;;;;;;;;;;;9.10;99.90;;;9.39;68.25;102742.94;4937530;29;20051;-71
2021/03/18 01:15:53;;;;;;;24.80;9.10;;;9.20;99.90;;;9.34;68.05;102747.19;4936736;29;20385;-71
2021/03/18 01:18:25;;;;;;;23.50;8.60;;;9.20;99.90;;;9.41;67.92;102753.53;4936597;29;20055;-71
2021/03/18 01:20:55;;;;;;;23.58;8.68;;;9.20;99.90;;;9.42;68.33;102766.81;4919808;29;20079;-71
2021/03/18 01:23:22;;;;;;;28.50;8.60;;;9.20;99.90;;;9.44;68.46;102749.28;4937066;29;20459;-71
2021/03/18 01:25:50;;;;;;;30.73;9.27;;;9.20;99.90;;;9.29;69.02;102740.84;4936778;29;20067;-70
2021/03/18 01:28:17;;;;;;;23.98;7.45;;;9.20;99.90;;;9.25;69.71;102743.38;4936556;29;20508;-72
2021/03/18 01:30:53;;;;;;;28.10;8.48;;;9.10;99.90;;;9.33;69.88;102742.75;4936764;29;20039;-71
2021/03/18 01:33:21;;;;;;;25.52;8.73;;;9.10;99.90;;;9.33;70.11;102745.38;4936690;29;20039;-71
2021/03/18 01:35:48;;;;;;;30.73;8.70;;;9.10;99.90;;;9.04;70.19;102712.81;4936242;29;20063;-72
2021/03/18 01:38:16;;;;;;;23.58;8.27;;;9.10;99.90;;;8.93;70.49;102701.03;4936232;29;20043;-70
2021/03/18 01:40:45;;;;;;;28.23;7.55;;;9.00;99.90;;;9.36;70.78;102744.59;4936422;29;20063;-71
2021/03/18 01:43:13;;;;;;;21.65;7.57;;;9.10;99.90;;;9.40;70.58;102749.13;4936219;29;20039;-71
2021/03/18 01:45:41;;;;;;;24.65;7.88;;;9.10;99.90;;;9.33;70.97;102737.47;4936145;29;20048;-71
2021/03/18 01:48:10;;;;;;;23.67;8.10;;;9.10;99.90;;;9.28;71.09;102730.25;4936421;29;20051;-71
2021/03/18 01:50:40;;;;;;;26.75;7.30;;;9.10;99.90;;;9.10;71.00;102698.91;4936355;29;20048;-71
2021/03/18 01:53:08;;;;;;;26.67;7.47;;;9.10;99.90;;;9.23;70.99;102727.50;4936339;29;20387;-71
2021/03/18 01:55:39;;;;;;;25.13;7.72;;;9.00;99.90;;;9.21;70.99;102728.28;4935996;29;20387;-71
2021/03/18 01:58:09;;;;;;;27.70;8.70;;;9.00;99.90;;;9.17;70.91;102716.75;4936382;29;20385;-71
2021/03/18 02:00:41;;;;;;;26.13;8.45;;;8.90;99.90;;;9.18;71.12;102717.63;4935911;29;20044;-71
2021/03/18 02:03:16;;;;;;;25.45;7.50;;;8.90;99.90;;;9.16;70.92;102712.28;4936154;29;20405;-71
2021/03/18 02:05:44;;;;;;;28.05;8.05;;;8.90;99.90;;;9.08;71.63;102705.88;4936178;29;20047;-71
2021/03/18 02:08:16;;;;;;;25.33;7.72;;;8.80;99.90;;;9.03;71.70;102699.56;4918979;29;20496;-72
2021/03/18 02:10:44;;;;;;;31.02;9.35;;;8.80;99.90;;;8.90;71.62;102689.50;4935799;29;20047;-72
2021/03/18 02:13:14;;;;;;;34.03;9.07;;;8.70;99.90;;;8.90;71.93;102678.94;4936031;29;20050;-71
2021/03/18 02:15:44;;;;;;;22.97;9.07;;;8.60;99.90;;;8.80;71.67;102684.75;4936013;29;20047;-71
2021/03/18 02:18:17;;;;;;;;;;;8.50;99.90;;;8.54;72.18;102668.09;4936075;29;20118;-71
2021/03/18 02:21:40;;;;;;;30.33;8.63;;;8.40;99.90;;;8.56;72.20;102686.59;4936204;29;19978;-71
2021/03/18 02:24:43;;;;;;;27.45;9.18;;;8.30;99.90;;;8.10;73.42;102692.94;4935881;29;20068;-72
2021/03/18 02:27:54;;;;;;;27.83;9.07;;;8.00;99.90;;;7.68;74.51;102701.03;4918747;29;20043;-71
2021/03/18 02:30:56;;;;;;;27.83;9.48;;;7.50;99.90;;;7.62;75.19;102698.19;4934449;29;20060;-71
2021/03/18 02:34:16;;;;;;;22.63;8.85;;;7.30;99.90;;;7.73;75.05;102695.09;4935854;29;20082;-71
2021/03/18 02:36:50;;;;;;;20.83;8.50;;;7.40;99.90;;;7.77;74.69;102686.47;4918221;29;20056;-71
2021/03/18 02:39:28;;;;;;;26.55;9.05;;;7.50;99.90;;;7.87;74.33;102682.41;4918611;29;20647;-72
2021/03/18 02:42:00;;;;;;;27.65;9.25;;;7.60;99.90;;;7.98;74.34;102668.78;4935841;29;20051;-71
2021/03/18 02:44:31;;;;;;;27.88;9.88;;;7.70;99.90;;;8.03;74.03;102669.81;4935752;29;20047;-71
2021/03/18 02:47:04;;;;;;;29.05;9.02;;;7.80;99.90;;;8.06;73.46;102661.13;4935940;29;20067;-71
2021/03/18 02:49:37;;;;;;;25.17;9.77;;;7.80;99.90;;;8.12;73.16;102661.34;4935252;29;20406;-71
2021/03/18 02:52:07;;;;;;;25.67;9.55;;;7.90;99.90;;;8.12;72.95;102667.53;4935891;29;20091;-72
2021/03/18 02:54:40;;;;;;;24.23;9.50;;;7.90;99.90;;;8.14;72.76;102654.41;4935352;29;20509;-72
2021/03/18 02:57:13;;;;;;;19.85;9.27;;;7.90;99.90;;;8.16;73.29;102647.44;4935724;29;20059;-72
2021/03/18 02:59:43;;;;;;;21.73;9.05;;;8.00;99.90;;;8.04;72.63;102621.56;4918152;29;20048;-71
2021/03/18 03:02:14;;;;;;;33.38;10.15;;;8.00;99.90;;;8.12;72.73;102646.44;4935639;29;20052;-72
2021/03/18 03:04:46;;;;;;;24.13;9.80;;;8.00;99.90;;;8.17;73.22;102658.03;4935516;29;20430;-71
2021/03/18 03:07:15;;;;;;;27.25;10.02;;;8.00;99.90;;;8.02;72.90;102638.16;4935464;29;20063;-71
2021/03/18 03:09:46;;;;;;;22.17;9.30;;;8.00;99.90;;;8.00;72.88;102618.75;4935502;29;20051;-71
2021/03/18 03:12:18;;;;;;;29.15;9.35;;;8.10;99.90;;;8.35;72.08;102670.97;4935219;29;20486;-72
2021/03/18 03:14:47;;;;;;;19.80;9.00;;;8.10;99.90;;;8.42;72.05;102659.75;4935500;29;20048;-73
2021/03/18 03:17:19;;;;;;;26.42;9.80;;;8.20;99.90;;;8.46;71.97;102652.88;4935386;29;20054;-71
2021/03/18 03:19:47;;;;;;;23.25;9.90;;;8.30;99.90;;;8.40;71.51;102627.19;4935362;29;20087;-71
2021/03/18 03:22:19;;;;;;;28.58;10.13;;;8.30;99.90;;;8.61;71.32;102648.09;4935380;29;20056;-72
2021/03/18 03:24:48;;;;;;;26.13;9.85;;;8.40;99.90;;;8.65;71.18;102640.31;4935322;29;20103;-71
2021/03/18 03:27:16;;;;;;;24.27;9.63;;;8.40;99.90;;;8.67;70.94;102635.09;4934874;29;20062;-72
2021/03/18 03:29:45;;;;;;;27.58;10.43;;;8.50;99.90;;;8.67;71.28;102635.09;4935253;29;20086;-72
2021/03/18 03:32:14;;;;;;;27.30;10.27;;;8.50;99.90;;;8.70;71.10;102640.47;4935223;29;20047;-72
2021/03/18 03:34:47;;;;;;;24.08;10.68;;;8.50;99.90;;;8.70;70.61;102632.53;4935021;29;20044;-71
2021/03/18 03:37:15;;;;;;;23.90;9.52;;;8.50;99.90;;;7.99;70.61;102511.59;4935030;29;20521;-72
2021/03/18 03:39:44;;;;;;;27.48;9.90;;;8.50;99.90;;;8.67;70.63;102633.34;4935073;29;20052;-72
2021/03/18 03:42:12;;;;;;;26.27;9.90;;;8.40;99.90;;;8.68;70.63;102629.88;4937020;29;20490;-71
2021/03/18 03:44:43;;;;;;;23.02;9.00;;;8.50;99.90;;;8.65;70.59;102624.47;4938586;29;20051;-72
2021/03/18 03:47:13;;;;;;;25.33;10.00;;;8.40;99.90;;;8.66;70.91;102633.28;4938605;29;20132;-72
2021/03/18 03:49:42;;;;;;;25.50;10.60;;;8.50;99.90;;;8.65;70.39;102631.50;4938287;29;20069;-70
2021/03/18 03:52:22;;;;;;;22.48;9.52;;;8.50;99.90;;;8.64;70.51;102642.91;4938516;29;20043;-72
2021/03/18 03:55:03;;;;;;;22.00;8.43;;;8.40;99.90;;;8.66;70.87;102654.41;4921457;29;20085;-71
2021/03/18 03:57:38;;;;;;;27.13;9.65;;;8.50;99.90;;;8.50;71.00;102633.63;4938100;29;20035;-72
2021/03/18 04:00:09;;;;;;;23.48;10.43;;;8.40;99.90;;;8.53;71.60;102631.13;4938094;29;20490;-72
2021/03/18 04:02:55;;;;;;;31.75;10.30;;;8.30;99.90;;;8.35;72.06;102601.50;4938304;29;20147;-71
2021/03/18 04:05:24;;;;;;;27.33;10.00;;;8.30;99.90;;;8.48;71.64;102628.31;4938033;29;20142;-71
2021/03/18 04:08:02;;;;;;;24.08;9.25;;;8.30;99.90;;;8.34;72.44;102627.00;4938312;29;20051;-71
2021/03/18 04:10:35;;;;;;;25.75;9.07;;;8.20;99.90;;;8.16;72.60;102603.53;4938282;29;20043;-71
2021/03/18 04:13:03;;;;;;;24.50;9.60;;;8.10;99.90;;;8.27;73.07;102617.09;4938231;29;20079;-72
2021/03/18 04:15:34;;;;;;;22.52;9.35;;;8.00;99.90;;;8.26;73.05;102619.69;4938116;29;20459;-71
2021/03/18 04:18:08;;;;;;;30.58;10.52;;;8.00;99.90;;;8.36;73.30;102606.84;4938034;29;20058;-72
2021/03/18 04:20:39;;;;;;;26.73;9.98;;;8.10;99.90;;;8.44;72.92;102599.19;4937866;29;20116;-71
2021/03/18 04:23:10;;;;;;;27.77;10.75;;;8.20;99.90;;;8.52;72.25;102600.31;4920880;29;20055;-71
2021/03/18 04:25:41;;;;;;;29.02;10.00;;;8.30;99.90;;;8.53;72.26;102602.13;4937990;29;20047;-71
2021/03/18 04:28:14;;;;;;;24.80;9.60;;;8.30;99.90;;;8.47;72.41;102597.53;4937583;29;20056;-71
2021/03/18 04:30:42;;;;;;;22.70;9.13;;;8.30;99.90;;;8.39;72.58;102587.59;4937663;29;20040;-72
2021/03/18 04:33:11;;;;;;;25.35;9.98;;;8.20;99.90;;;8.28;72.84;102584.63;4937541;29;20513;-72
2021/03/18 04:35:39;;;;;;;23.13;9.82;;;8.20;99.90;;;8.20;72.84;102586.06;4937615;29;20087;-71
2021/03/18 04:38:07;;;;;;;19.45;9.00;;;8.10;99.90;;;7.74;72.68;102530.94;4920591;29;20132;-71
2021/03/18 04:40:39;;;;;;;22.88;10.05;;;8.00;99.90;;;8.06;72.98;102592.63;4920570;29;20517;-72
2021/03/18 04:43:06;;;;;;;23.00;9.20;;;7.90;99.90;;;8.01;73.11;102589.81;4937667;29;20063;-71
2021/03/18 04:45:36;;;;;;;21.30;10.00;;;7.80;99.90;;;8.01;72.92;102589.81;4937606;29;20043;-72
2021/03/18 04:48:06;;;;;;;19.05;9.20;;;7.80;99.90;;;7.95;73.20;102594.91;4937585;29;20520;-72
2021/03/18 04:50:34;;;;;;;23.50;9.57;;;7.80;99.90;;;7.92;74.00;102593.88;4920433;29;20047;-72
2021/03/18 04:53:02;;;;;;;25.97;9.77;;;7.70;99.90;;;7.95;74.35;102594.91;4936096;29;20055;-71
2021/03/18 04:55:29;;;;;;;23.55;9.65;;;7.70;99.90;;;7.93;74.14;102586.06;4937170;29;20078;-72
2021/03/18 04:58:03;;;;;;;18.95;8.90;;;7.70;99.90;;;7.82;74.11;102566.34;4937444;29;20805;-72
2021/03/18 05:00:33;;;;;;;24.57;9.93;;;7.70;99.90;;;8.01;74.45;102594.22;4937094;29;20446;-72
2021/03/18 05:03:04;;;;;;;24.50;10.27;;;7.80;99.90;;;7.43;74.63;102470.22;4937180;29;20074;-71
2021/03/18 05:05:33;;;;;;;22.00;9.82;;;7.80;99.90;;;7.96;75.15;102579.97;4920345;29;20079;-72
2021/03/18 05:08:03;;;;;;;19.67;9.95;;;7.70;99.90;;;7.82;75.49;102545.25;4920073;29;20074;-72
2021/03/18 05:10:34;;;;;;;22.30;10.00;;;7.70;99.90;;;7.98;75.35;102579.19;4937086;29;20054;-74
2021/03/18 05:13:06;;;;;;;19.20;9.57;;;7.80;99.90;;;8.03;75.78;102574.97;4937096;29;20062;-71
2021/03/18 05:15:35;;;;;;;20.08;9.05;;;7.70;99.90;;;8.03;75.96;102571.44;4937074;29;20064;-71
2021/03/18 05:18:04;;;;;;;16.17;8.82;;;7.80;99.90;;;7.98;75.42;102565.13;4936640;29;20039;-73
2021/03/18 05:20:32;;;;;;;19.45;9.13;;;7.70;99.90;;;7.91;75.40;102560.50;4936845;29;20095;-72
2021/03/18 05:23:00;;;;;;;16.27;9.00;;;7.70;99.90;;;7.93;75.75;102572.88;4936895;29;20090;-74
2021/03/18 05:25:31;;;;;;;20.80;9.68;;;7.70;99.90;;;7.96;75.88;102574.72;4936806;29;20047;-74
2021/03/18 05:27:59;;;;;;;21.90;9.23;;;7.70;99.90;;;7.97;75.91;102581.78;4936977;29;20051;-74
2021/03/18 05:30:30;;;;;;;17.30;9.13;;;7.70;99.90;;;7.81;76.13;102554.03;4936614;29;20494;-74
2021/03/18 05:32:58;;;;;;;17.92;9.43;;;7.70;99.90;;;8.03;75.88;102576.72;4919763;29;20056;-74
2021/03/18 05:35:38;;;;;;;21.25;9.55;;;7.70;99.90;;;7.96;75.87;102566.81;4936562;29;20146;-76
2021/03/18 05:38:07;;;;;;;20.38;9.40;;;7.70;99.90;;;7.97;75.83;102558.97;4936517;29;20059;-74
2021/03/18 05:40:36;;;;;;;27.83;9.85;;;7.70;99.90;;;8.02;75.83;102570.53;4936555;29;20502;-76
2021/03/18 05:43:05;;;;;;;26.33;9.60;;;7.80;99.90;;;8.06;76.74;102575.06;4936510;29;20062;-75
2021/03/18 05:45:35;;;;;;;25.17;9.73;;;7.80;99.90;;;7.96;76.70;102548.34;4936234;29;20048;-75
2021/03/18 05:48:04;;;;;;;27.15;8.75;;;7.80;99.90;;;8.12;77.47;102577.00;4936447;29;20107;-74
2021/03/18 05:50:35;;;;;;;35.50;9.68;;;7.80;99.90;;;8.10;78.59;102573.44;4936472;29;20052;-74
2021/03/18 05:53:04;;;;;;;29.25;8.75;;;7.80;99.90;;;8.07;79.07;102536.44;4919271;29;20052;-73
2021/03/18 05:55:32;;;;;;;33.35;9.23;;;7.90;99.90;;;8.41;78.73;102575.34;4936344;29;20051;-74
2021/03/18 05:58:00;;;;;;;31.98;9.52;;;8.10;99.90;;;8.54;78.48;102580.16;4936588;29;20044;-74
2021/03/18 06:00:31;;;;;;;35.88;9.50;;;8.20;99.90;;;8.41;78.88;102567.44;4936148;29;20050;-73
2021/03/18 06:03:00;;;;;;;37.70;9.88;;;8.20;99.90;;;8.44;78.61;102564.91;4936214;29;20047;-73
2021/03/18 06:05:28;;;;;;;31.42;8.18;;;8.20;99.90;;;8.46;78.47;102552.66;4935851;29;20075;-72
2021/03/18 06:07:55;;;;;;;28.95;8.32;;;8.20;99.90;;;8.48;79.20;102557.13;4936076;29;20071;-74
2021/03/18 06:10:27;;;;;;;22.45;8.45;;;8.20;99.90;;;8.60;79.18;102551.31;4935987;29;20048;-74
2021/03/18 06:13:00;;;;;;;27.25;8.32;;;8.30;99.90;;;8.76;77.93;102551.84;4936069;29;20063;-73
2021/03/18 06:15:29;;;;;;;28.27;8.45;;;8.40;99.90;;;8.87;77.63;102553.06;4936014;29;20565;-74
2021/03/18 06:17:57;;;;;;;27.65;8.25;;;8.60;99.90;;;8.72;77.94;102535.88;4935932;29;20098;-74
2021/03/18 06:20:29;;;;;;;29.48;8.18;;;8.60;99.90;;;8.90;78.13;102554.91;4935822;29;20047;-74
2021/03/18 06:22:59;;;;;;;26.35;7.97;;;8.60;99.90;;;8.98;77.54;102561.31;4935752;29;20454;-74
2021/03/18 06:25:30;;;;;;;27.08;8.13;;;8.70;99.90;;;8.90;77.96;102557.53;4935894;29;20047;-74
2021/03/18 06:28:19;;;;;;;41.55;8.82;;;8.60;99.90;;;8.99;77.53;102558.72;4935904;29;20160;-74
2021/03/18 06:30:59;;;;;;;37.30;9.25;;;8.70;99.90;;;8.97;77.87;102548.94;4935828;29;20489;-73
2021/03/18 06:33:29;;;;;;;33.22;8.73;;;8.70;99.90;;;8.90;77.94;102552.25;4918481;29;20048;-73
2021/03/18 06:36:23;;;;;;;25.63;7.85;;;8.60;99.90;;;8.76;78.55;102532.47;4935929;29;20143;-73
2021/03/18 06:39:06;;;;;;;28.58;7.97;;;8.50;99.90;;;8.72;78.58;102514.78;4935692;29;20098;-71
2021/03/18 06:41:36;;;;;;;27.38;7.70;;;8.40;99.90;;;8.78;78.65;102512.31;4935779;29;20063;-74
2021/03/18 06:44:06;;;;;;;31.83;8.07;;;8.40;99.90;;;8.91;78.42;102506.53;4935694;29;20441;-73
2021/03/18 06:46:40;;;;;;;28.08;8.07;;;8.50;99.90;;;8.32;77.96;102424.78;4935626;29;20043;-74
2021/03/18 06:49:13;;;;;;;24.77;8.35;;;8.50;99.90;;;8.85;78.87;102517.81;4935340;29;20142;-73
2021/03/18 06:51:42;;;;;;;29.48;8.30;;;8.60;99.90;;;8.96;78.67;102520.78;4935564;29;20052;-74
2021/03/18 06:54:21;;;;;;;32.47;7.72;;;8.60;99.90;;;8.77;78.40;102524.59;4935374;29;20478;-73
2021/03/18 06:56:57;;;;;;;20.75;7.47;;;8.60;99.90;;;8.78;79.50;102528.16;4935305;29;20051;-73
2021/03/18 06:59:29;;;;;;;30.30;7.55;;;8.50;99.90;;;8.92;78.82;102516.25;4935585;29;20051;-73
2021/03/18 07:02:04;;;;;;;24.67;7.90;;;8.60;99.90;;;8.95;78.75;102505.78;4935649;29;20126;-74
2021/03/18 07:04:38;;;;;;;28.20;8.10;;;8.60;99.90;;;9.04;78.20;102492.81;4935596;29;20497;-73
2021/03/18 07:07:08;;;;;;;23.13;7.40;;;8.70;99.90;;;8.95;78.34;102488.22;4935545;29;20050;-74
2021/03/18 07:09:37;;;;;;;22.13;6.80;;;8.70;99.90;;;9.00;77.73;102475.16;4918228;29;20060;-74
2021/03/18 07:12:07;;;;;;;27.70;7.05;;;8.70;99.90;;;8.90;78.33;102481.03;4935369;29;20040;-74
2021/03/18 07:14:39;;;;;;;19.38;7.28;;;8.70;99.90;;;8.83;78.01;102463.19;4935002;29;20050;-73
2021/03/18 07:17:08;;;;;;;24.85;7.65;;;8.70;99.90;;;9.05;78.29;102476.16;4919961;29;20043;-73
2021/03/18 07:19:36;;;;;;;26.88;6.97;;;8.70;99.90;;;9.04;77.57;102482.28;4939239;29;20490;-73
2021/03/18 07:22:16;;;;;;;22.73;7.28;;;8.80;99.90;;;9.07;77.74;102477.09;4939001;29;20051;-72
2021/03/18 07:24:43;;;;;;;31.33;8.20;;;8.70;99.90;;;9.11;77.33;102478.97;4938988;29;20047;-73
2021/03/18 07:27:13;;;;;;;22.65;7.13;;;8.80;99.90;;;9.06;77.37;102486.75;4938905;29;20393;-73
2021/03/18 07:29:44;;;;;;;22.30;7.38;;;8.80;99.90;;;9.06;77.52;102480.56;4921707;29;20119;-73
2021/03/18 07:32:14;;;;;;;24.38;8.27;;;8.80;99.90;;;9.00;77.79;102498.91;4939256;29;20401;-73
2021/03/18 07:34:47;;;;;;;23.88;6.95;;;8.80;99.90;;;9.19;77.65;102493.28;4938634;29;20473;-73
2021/03/18 07:37:15;;;;;;;30.27;7.85;;;8.90;99.90;;;9.32;77.40;102500.66;4921709;29;20122;-73
2021/03/18 07:39:42;;;;;;;23.77;7.13;;;9.10;99.90;;;8.61;77.06;102385.25;4938549;29;20090;-73
2021/03/18 07:42:11;;;;;;;20.40;7.15;;;9.10;99.90;;;9.36;76.91;102486.69;4938640;29;20040;-73
2021/03/18 07:44:42;;;;;;;18.52;7.85;;;9.10;99.90;;;9.18;77.02;102493.22;4938481;29;20102;-73
2021/03/18 07:47:15;;;;;;;21.63;6.22;;;9.00;99.90;;;8.95;77.63;102509.31;4938122;29;20398;-73
2021/03/18 07:49:46;;;;;;;19.98;7.57;;;8.80;99.90;;;9.13;77.28;102503.66;4938614;29;20044;-73
2021/03/18 07:52:20;;;;;;;27.60;7.82;;;8.90;99.90;;;8.76;77.18;102503.47;4938554;29;20040;-73
2021/03/18 07:54:50;;;;;;;19.90;6.22;;;8.60;99.90;;;8.93;76.94;102499.56;4938481;29;20103;-72
2021/03/18 07:57:50;;;;;;;17.10;5.75;;;8.70;99.90;;;8.77;77.09;102500.88;4938541;29;20062;-72
2021/03/18 08:00:23;;;;;;;14.80;5.53;;;8.70;99.90;;;8.59;77.72;102467.78;4938416;29;20100;-72
2021/03/18 08:02:52;;;;;;;16.35;6.38;;;8.60;99.90;;;8.98;77.42;102490.03;4938382;29;20132;-73
2021/03/18 08:05:37;;;;;;;14.95;5.53;;;8.70;99.90;;;8.82;77.74;102482.53;4938073;29;20051;-72
2021/03/18 08:08:07;;;;;;;12.90;5.63;;;8.70;99.90;;;9.06;77.27;102476.19;4921131;29;20481;-73
2021/03/18 08:11:04;;;;;;;14.05;6.30;;;8.80;99.90;;;9.23;77.03;102479.31;4938163;29;20098;-73
2021/03/18 08:13:34;;;;;;;14.73;5.85;;;9.00;99.90;;;9.28;76.59;102482.94;4921100;29;20090;-73
2021/03/18 08:16:02;;;;;;;16.40;5.47;;;9.10;99.90;;;9.16;77.14;102477.34;4938188;29;20039;-73
2021/03/18 08:18:40;;;;;;;17.77;6.78;;;9.00;99.90;;;9.30;77.11;102483.88;4938081;29;20040;-73
2021/03/18 08:21:11;;;;;;;20.73;6.10;;;9.00;99.90;;;9.48;76.45;102483.47;4938082;29;20130;-73
2021/03/18 08:23:51;;;;;;;14.27;6.32;;;9.20;99.90;;;9.60;76.06;102481.16;4938201;29;20107;-73
2021/03/18 08:26:43;;;;;;;16.05;6.03;;;9.40;99.90;;;9.61;75.33;102478.56;4937871;29;20047;-72
2021/03/18 08:29:17;;;;;;;18.00;6.10;;;9.40;99.90;;;9.60;75.28;102482.03;4920273;29;20146;-73
2021/03/18 08:32:00;;;;;;;14.43;5.55;;;9.40;99.90;;;9.50;75.56;102480.03;4937875;29;20059;-72
2021/03/18 08:34:53;;;;;;;19.00;5.63;;;9.40;99.90;;;9.60;75.21;102476.75;4937527;29;20496;-73
2021/03/18 08:37:40;;;;;;;15.27;6.07;;;9.40;99.90;;;9.40;75.01;102485.94;4937552;29;20421;-73
2021/03/18 08:40:29;;;;;;;12.60;5.90;;;9.30;99.90;;;9.30;75.68;102482.97;4937586;29;20143;-73
2021/03/18 08:43:03;;;;;;;18.00;6.30;;;9.20;99.90;;;9.16;76.20;102509.00;4937654;29;20066;-73
2021/03/18 08:45:42;;;;;;;13.80;5.95;;;9.00;99.90;;;9.55;75.81;102482.78;4920519;29;20051;-72
2021/03/18 08:48:21;;;;;;;15.57;6.20;;;9.20;99.90;;;9.65;75.11;102492.72;4937592;29;20056;-74
2021/03/18 08:51:03;;;;;;;18.33;5.75;;;9.40;99.90;;;9.52;74.67;102491.53;4937284;29;20576;-73
2021/03/18 08:53:38;;;;;;;13.15;5.57;;;9.40;99.90;;;9.49;74.60;102486.16;4920315;29;20052;-73
2021/03/18 08:56:08;;;;;;;12.57;5.68;;;9.30;99.90;;;9.27;74.48;102478.50;4937466;29;20123;-74
2021/03/18 08:58:53;;;;;;;15.05;5.47;;;9.20;99.90;;;9.22;74.97;102485.44;4937424;29;20066;-73
2021/03/18 09:01:22;;;;;;;16.40;5.13;;;9.10;99.90;;;9.42;74.90;102499.16;4936927;29;20035;-73
2021/03/18 09:03:59;;;;;;;16.20;6.40;;;9.20;99.90;;;9.45;74.85;102505.41;4937079;29;20044;-73
2021/03/18 09:06:31;;;;;;;11.35;5.30;;;9.20;99.90;;;9.47;74.41;102484.31;4937486;29;20071;-73
2021/03/18 09:09:00;;;;;;;8.35;4.90;;;9.20;99.90;;;9.55;74.04;102486.31;4920092;29;20056;-73
2021/03/18 09:11:28;;;;;;;15.57;5.18;;;9.30;99.90;;;9.44;73.77;102463.13;4936977;29;20130;-73
2021/03/18 09:13:56;;;;;;;18.08;6.03;;;9.50;99.90;;;9.64;73.34;102473.31;4919714;29;20059;-73
2021/03/18 09:16:24;;;;;;;10.63;4.95;;;9.50;99.90;;;9.84;73.64;102485.28;4936743;29;20491;-72
2021/03/18 09:19:00;;;;;;;14.45;5.50;;;9.60;99.90;;;9.77;72.79;102475.44;4936769;29;20071;-73
2021/03/18 09:21:41;;;;;;;10.93;5.10;;;9.60;99.90;;;9.86;73.19;102487.97;4936904;29;20067;-73
2021/03/18 09:24:10;;;;;;;16.95;5.40;;;9.60;99.90;;;9.65;73.43;102458.38;4937162;29;20605;-73
2021/03/18 09:26:40;;;;;;;15.35;5.60;;;9.60;99.90;;;9.77;73.44;102475.44;4936390;29;20143;-73
2021/03/18 09:29:08;;;;;;;16.38;5.95;;;9.60;99.90;;;9.86;74.00;102472.09;4936843;29;20126;-73
2021/03/18 09:31:35;;;;;;;12.30;4.95;;;9.70;99.90;;;9.96;73.48;102472.38;4919536;29;20067;-72
2021/03/18 09:34:03;;;;;;;14.73;5.40;;;9.80;99.90;;;10.07;73.02;102480.53;4936643;29;20047;-73
2021/03/18 09:36:33;;;;;;;15.15;5.55;;;9.90;99.90;;;10.06;72.59;102484.06;4936167;29;20067;-72
2021/03/18 09:39:06;;;;;;;14.23;5.10;;;10.00;99.90;;;9.98;73.35;102486.53;4935712;29;20414;-72
2021/03/18 09:41:36;;;;;;;11.68;5.47;;;9.90;99.90;;;9.72;73.53;102462.94;4936430;29;20044;-73
2021/03/18 09:44:10;;;;;;;16.52;5.90;;;9.80;99.90;;;9.60;74.12;102484.66;4936376;29;20040;-73
2021/03/18 09:46:47;;;;;;;13.65;6.07;;;9.60;99.90;;;9.52;74.48;102482.72;4936190;29;20091;-72
2021/03/18 09:49:16;;;;;;;19.95;6.50;;;9.40;99.90;;;9.43;75.22;102483.34;4936389;29;20065;-73
2021/03/18 09:51:45;;;;;;;17.17;6.28;;;9.30;99.90;;;9.53;75.15;102474.81;4935990;29;20520;-73
2021/03/18 09:54:18;;;;;;;16.10;5.72;;;9.30;99.90;;;9.64;75.58;102478.59;4919314;29;20059;-73
2021/03/18 09:56:45;;;;;;;13.75;6.25;;;9.40;99.90;;;9.83;74.54;102475.56;4936015;29;20058;-73
2021/03/18 09:59:14;;;;;;;14.93;6.30;;;9.60;99.90;;;9.66;75.18;102484.81;4918993;29;20052;-73
2021/03/18 10:01:41;;;;;;;20.80;6.18;;;9.50;99.90;;;9.65;75.37;102475.13;4936247;29;20422;-73
2021/03/18 10:04:13;;;;;;;19.60;6.55;;;9.50;99.90;;;9.74;75.55;102470.06;4936055;29;20044;-74
2021/03/18 10:06:44;;;;;;;15.60;5.38;;;9.60;99.90;;;9.64;76.49;102477.75;4936333;29;20397;-73
2021/03/18 10:09:21;;;;;;;16.33;5.85;;;9.40;99.90;;;9.63;76.56;102473.28;4936175;29;20054;-73
2021/03/18 10:11:50;;;;;;;17.30;5.47;;;9.40;99.90;;;9.08;76.91;102373.28;4936040;29;20055;-72
2021/03/18 10:14:19;;;;;;;18.77;6.30;;;9.50;99.90;;;9.51;78.32;102476.53;4936202;29;20148;-73
2021/03/18 10:17:05;;;;;;;13.80;5.30;;;9.40;99.90;;;9.82;77.55;102472.88;4936077;29;20044;-72
2021/03/18 10:19:35;;;;;;;;;;;9.60;99.90;;;9.88;76.99;102467.75;4936168;29;20048;-73
2021/03/18 10:22:06;;;;;;;11.05;4.90;;;9.70;99.90;;;9.80;76.96;102464.94;4935809;29;19929;-73
2021/03/18 10:24:35;;;;;;;17.67;5.82;;;9.60;99.90;;;9.80;77.04;102454.38;4936003;29;20040;-72
2021/03/18 10:27:14;;;;;;;17.60;5.93;;;9.60;99.90;;;9.88;76.82;102439.59;4935559;29;20055;-73
2021/03/18 10:29:43;;;;;;;15.35;5.97;;;9.70;99.90;;;9.60;77.39;102444.19;4918802;29;20450;-73
2021/03/18 10:32:13;;;;;;;15.00;5.75;;;9.50;99.90;;;9.72;76.74;102441.81;4918911;29;20103;-73
2021/03/18 10:34:52;;;;;;;15.38;5.07;;;9.50;99.90;;;9.95;75.76;102444.16;4935532;29;20122;-72
2021/03/18 10:37:26;;;;;;;12.07;5.30;;;9.80;99.90;;;10.16;75.15;102441.16;4935496;29;20067;-74
2021/03/18 10:40:18;;;;;;;17.65;5.90;;;10.00;99.90;;;10.00;74.82;102441.63;4935675;29;20056;-73
2021/03/18 10:42:49;;;;;;;11.45;5.32;;;9.90;99.90;;;10.19;73.81;102435.91;4935699;29;20063;-72